Time;durP1;ratioP1;P1;durP2;ratioP2;P2;SDS_P1;SDS_P2;PMS_P1;PMS_P2;Temp;Humidity;BMP_temperature;BMP_pressure;BME280_temperature;BME280_humidity;BME280_pressure;Samples;Min_cycle;Max_cycle;Signal;HPM_P1;HPM_P2
2021/10/29 00:02:11;;;;;;;29.47;21.30;;;4.80;99.90;;;;;;5070162;28;20488;-66
2021/10/29 00:04:38;;;;;;;24.27;19.90;;;4.80;99.90;;;;;;5069816;28;21236;-66
2021/10/29 00:07:07;;;;;;;29.40;21.37;;;4.80;99.90;;;;;;5069276;28;20475;-65
2021/10/29 00:09:34;;;;;;;29.00;21.23;;;4.80;99.90;;;;;;5069832;28;20439;-66
2021/10/29 00:12:01;;;;;;;27.93;20.10;;;4.70;99.90;;;;;;5069547;28;20929;-66
2021/10/29 00:14:31;;;;;;;30.00;22.70;;;4.60;99.90;;;;;;5069620;28;20443;-66
2021/10/29 00:16:58;;;;;;;39.50;24.33;;;4.60;99.90;;;;;;5069382;28;20455;-65
2021/10/29 00:19:25;;;;;;;35.20;24.00;;;4.70;99.90;;;;;;5072994;28;20612;-66
2021/10/29 00:21:52;;;;;;;38.33;25.03;;;4.80;99.90;;;;;;5073858;28;20458;-66
2021/10/29 00:24:20;;;;;;;32.67;22.40;;;4.80;99.90;;;;;;5073374;28;20447;-65
2021/10/29 00:26:47;;;;;;;30.83;22.00;;;4.80;99.90;;;;;;5073315;28;20488;-65
2021/10/29 00:29:14;;;;;;;33.23;22.03;;;4.80;99.90;;;;;;5071895;28;20435;-65
2021/10/29 00:31:41;;;;;;;31.43;22.80;;;4.80;99.90;;;;;;5072910;28;20583;-66
2021/10/29 00:34:08;;;;;;;32.10;21.30;;;4.70;99.90;;;;;;5073291;28;20483;-66
2021/10/29 00:36:35;;;;;;;30.50;22.33;;;4.60;99.90;;;;;;5072807;28;20458;-66
2021/10/29 00:39:02;;;;;;;29.73;22.80;;;4.60;99.90;;;;;;5073201;28;20477;-65
2021/10/29 00:41:30;;;;;;;27.53;20.40;;;4.50;99.90;;;;;;5073178;28;20439;-66
2021/10/29 00:43:57;;;;;;;28.33;19.80;;;4.50;99.90;;;;;;5073360;28;20443;-66
2021/10/29 00:46:24;;;;;;;22.37;18.10;;;4.40;99.90;;;;;;5073033;28;20458;-66
2021/10/29 00:48:51;;;;;;;24.77;18.70;;;4.40;99.90;;;;;;5073225;28;20446;-66
2021/10/29 00:51:19;;;;;;;27.37;21.10;;;4.30;99.90;;;;;;5073034;28;20454;-66
2021/10/29 00:53:49;;;;;;;22.40;18.73;;;4.20;99.90;;;;;;5072700;28;20439;-65
2021/10/29 00:56:16;;;;;;;32.70;20.47;;;4.20;99.90;;;;;;5072829;28;20475;-66
2021/10/29 00:58:45;;;;;;;31.00;21.10;;;4.20;99.90;;;;;;5073052;28;20993;-66
2021/10/29 01:01:11;;;;;;;26.97;20.93;;;4.20;99.90;;;;;;5073221;28;20447;-66
2021/10/29 01:03:39;;;;;;;29.93;20.23;;;4.20;99.90;;;;;;5073138;28;20449;-66
2021/10/29 01:06:06;;;;;;;28.20;19.60;;;4.20;99.90;;;;;;5072673;28;20490;-66
2021/10/29 01:08:34;;;;;;;25.07;18.27;;;4.20;99.90;;;;;;5072580;28;20442;-65
2021/10/29 01:11:01;;;;;;;23.43;19.80;;;4.20;99.90;;;;;;5072917;28;20460;-66
2021/10/29 01:13:28;;;;;;;24.80;18.53;;;4.10;99.90;;;;;;5072656;28;20443;-66
2021/10/29 01:15:57;;;;;;;28.47;19.57;;;4.10;99.90;;;;;;5073115;28;20467;-66
2021/10/29 01:18:24;;;;;;;25.50;19.93;;;4.10;99.90;;;;;;5072332;28;20818;-66
2021/10/29 01:20:52;;;;;;;23.50;19.00;;;4.10;99.90;;;;;;5072640;28;20447;-66
2021/10/29 01:23:19;;;;;;;23.97;19.70;;;4.10;99.90;;;;;;5072422;28;20539;-66
2021/10/29 01:25:46;;;;;;;27.13;19.87;;;4.10;99.90;;;;;;5072695;28;20846;-66
2021/10/29 01:28:14;;;;;;;30.83;21.30;;;4.10;99.90;;;;;;5072082;28;20537;-66
2021/10/29 01:30:41;;;;;;;32.77;22.40;;;4.10;99.90;;;;;;5072175;28;20446;-66
2021/10/29 01:33:08;;;;;;;33.30;22.73;;;3.90;99.90;;;;;;5072346;28;20443;-66
2021/10/29 01:35:35;;;;;;;30.97;21.70;;;4.00;99.90;;;;;;5072271;28;20983;-66
2021/10/29 01:38:03;;;;;;;65.27;22.47;;;4.00;99.90;;;;;;5071556;28;20444;-65
2021/10/29 01:40:30;;;;;;;49.17;22.13;;;4.00;99.90;;;;;;5072207;28;20854;-66
2021/10/29 01:42:57;;;;;;;28.00;18.90;;;4.00;99.90;;;;;;5072156;28;20447;-65
2021/10/29 01:45:24;;;;;;;23.10;17.33;;;3.90;99.90;;;;;;5072097;28;20466;-66
2021/10/29 01:47:51;;;;;;;27.67;19.37;;;3.90;99.90;;;;;;5071243;28;20481;-66
2021/10/29 01:50:17;;;;;;;24.27;17.20;;;3.80;99.90;;;;;;5072192;28;20450;-66
2021/10/29 01:52:44;;;;;;;22.17;16.63;;;3.80;99.90;;;;;;5072090;28;20454;-65
2021/10/29 01:55:13;;;;;;;21.60;17.13;;;3.80;99.90;;;;;;5072047;28;20473;-66
2021/10/29 01:57:40;;;;;;;22.57;16.63;;;3.70;99.90;;;;;;5069143;28;20483;-66
2021/10/29 02:00:08;;;;;;;34.03;18.53;;;3.60;99.90;;;;;;5071612;28;21054;-65
2021/10/29 02:02:35;;;;;;;30.13;18.90;;;3.60;99.90;;;;;;5071853;28;20522;-65
2021/10/29 02:05:02;;;;;;;62.97;20.63;;;3.60;99.90;;;;;;5072363;28;20455;-65
2021/10/29 02:07:29;;;;;;;27.10;18.67;;;3.60;99.90;;;;;;5072038;28;20941;-65
2021/10/29 02:09:56;;;;;;;26.13;19.40;;;3.60;99.90;;;;;;5072241;28;20439;-65
2021/10/29 02:12:24;;;;;;;27.77;19.40;;;3.50;99.90;;;;;;5072671;28;20451;-66
2021/10/29 02:14:51;;;;;;;24.77;18.43;;;3.50;99.90;;;;;;5071455;28;20831;-66
2021/10/29 02:17:18;;;;;;;22.07;17.77;;;3.50;99.90;;;;;;5071227;28;20529;-66
2021/10/29 02:19:45;;;;;;;21.53;17.70;;;3.50;99.90;;;;;;5071336;28;20489;-66
2021/10/29 02:22:11;;;;;;;27.47;18.90;;;3.50;99.90;;;;;;5071572;28;20477;-65
2021/10/29 02:24:38;;;;;;;27.73;19.93;;;3.50;99.90;;;;;;5070971;28;20457;-66
2021/10/29 02:27:05;;;;;;;30.83;20.10;;;3.50;99.90;;;;;;5070942;28;20443;-66
2021/10/29 02:29:34;;;;;;;27.67;20.00;;;3.50;99.90;;;;;;5071526;28;20439;-66
2021/10/29 02:32:00;;;;;;;31.03;21.20;;;3.40;99.90;;;;;;5071679;28;20941;-65
2021/10/29 02:34:27;;;;;;;33.97;21.97;;;3.40;99.90;;;;;;5071533;28;20451;-66
2021/10/29 02:36:54;;;;;;;34.47;22.00;;;3.50;99.90;;;;;;5070785;28;20442;-65
2021/10/29 02:39:21;;;;;;;34.07;23.57;;;3.50;99.90;;;;;;5071488;28;20483;-65
2021/10/29 02:41:48;;;;;;;38.30;23.20;;;3.50;99.90;;;;;;5070425;28;20547;-66
2021/10/29 02:44:15;;;;;;;37.80;25.60;;;3.50;99.90;;;;;;5071347;28;20449;-65
2021/10/29 02:46:43;;;;;;;42.13;25.67;;;3.60;99.90;;;;;;5070649;28;20455;-65
2021/10/29 02:49:10;;;;;;;43.63;25.87;;;3.60;99.90;;;;;;5071039;28;20443;-66
2021/10/29 02:51:37;;;;;;;37.37;22.73;;;3.60;99.90;;;;;;5070635;28;20443;-66
2021/10/29 02:54:04;;;;;;;69.30;27.90;;;3.60;99.90;;;;;;5070885;28;20473;-66
2021/10/29 02:56:31;;;;;;;37.87;25.87;;;3.60;99.90;;;;;;5070028;28;21016;-66
2021/10/29 02:58:58;;;;;;;38.20;23.60;;;3.60;99.90;;;;;;5070765;28;20567;-65
2021/10/29 03:01:25;;;;;;;35.03;24.60;;;3.60;99.90;;;;;;5070656;28;20538;-65
2021/10/29 03:03:53;;;;;;;42.00;25.20;;;3.50;99.90;;;;;;5070497;28;20888;-65
2021/10/29 03:06:20;;;;;;;30.43;21.13;;;3.50;99.90;;;;;;5069979;28;20474;-65
2021/10/29 03:08:47;;;;;;;36.60;23.30;;;3.40;99.90;;;;;;5070736;28;20451;-66
2021/10/29 03:11:13;;;;;;;32.60;21.60;;;3.40;99.90;;;;;;5070674;28;20449;-65
2021/10/29 03:13:40;;;;;;;31.70;22.03;;;3.30;99.90;;;;;;5070551;28;20443;-66
2021/10/29 03:16:07;;;;;;;31.73;22.50;;;3.30;99.90;;;;;;5070270;28;20467;-66
2021/10/29 03:18:34;;;;;;;25.40;19.33;;;3.20;99.90;;;;;;5069929;28;20529;-66
2021/10/29 03:21:02;;;;;;;33.10;21.53;;;3.20;99.90;;;;;;5070287;28;20487;-66
2021/10/29 03:23:29;;;;;;;34.50;22.10;;;3.20;99.90;;;;;;5070600;28;20447;-65
2021/10/29 03:25:56;;;;;;;28.40;20.40;;;3.30;99.90;;;;;;5070273;28;20470;-66
2021/10/29 03:28:23;;;;;;;28.63;21.83;;;3.30;99.90;;;;;;5070068;28;20451;-66
2021/10/29 03:30:50;;;;;;;27.70;19.70;;;3.20;99.90;;;;;;5070320;28;20453;-66
2021/10/29 03:33:17;;;;;;;34.00;21.77;;;3.10;99.90;;;;;;5070024;28;20526;-66
2021/10/29 03:35:43;;;;;;;30.33;22.07;;;3.20;99.90;;;;;;5070337;28;20592;-65
2021/10/29 03:40:56;;;;;;;28.47;19.43;;;3.20;99.90;;;;;;5056794;28;20478;-65
2021/10/29 03:43:26;;;;;;;27.73;18.83;;;3.20;99.90;;;;;;5070248;28;20516;-66
2021/10/29 03:45:55;;;;;;;31.63;20.13;;;3.20;99.90;;;;;;5070078;28;20471;-66
2021/10/29 03:48:29;;;;;;;37.30;22.20;;;3.10;99.90;;;;;;5069869;28;20979;-66
2021/10/29 03:51:08;;;;;;;24.50;18.83;;;3.10;99.90;;;;;;5070148;28;20442;-65
2021/10/29 03:53:42;;;;;;;34.37;21.33;;;3.10;99.90;;;;;;5069963;28;20443;-66
2021/10/29 03:56:16;;;;;;;31.03;21.27;;;3.30;99.90;;;;;;5069842;28;20477;-65
2021/10/29 03:58:43;;;;;;;34.43;20.63;;;3.30;99.90;;;;;;5070298;28;20580;-66
2021/10/29 04:01:10;;;;;;;32.17;21.00;;;3.20;99.90;;;;;;5070078;28;20861;-65
2021/10/29 04:03:37;;;;;;;27.47;20.10;;;3.20;99.90;;;;;;5070200;28;20538;-65
2021/10/29 04:06:04;;;;;;;29.83;22.13;;;3.20;99.90;;;;;;5069822;28;20463;-66
2021/10/29 04:08:31;;;;;;;31.40;22.60;;;3.10;99.90;;;;;;5069730;28;20453;-66
2021/10/29 04:10:59;;;;;;;36.63;22.60;;;3.10;99.90;;;;;;5069940;28;20818;-66
2021/10/29 04:13:27;;;;;;;27.80;18.40;;;3.10;99.90;;;;;;5070119;28;20533;-66
2021/10/29 04:15:54;;;;;;;26.43;20.37;;;3.00;99.90;;;;;;5069803;28;20475;-66
2021/10/29 04:18:22;;;;;;;24.87;18.03;;;3.00;99.90;;;;;;5069657;28;20454;-65
2021/10/29 04:20:48;;;;;;;27.97;19.77;;;3.10;99.90;;;;;;5069852;28;20483;-65
2021/10/29 04:23:16;;;;;;;26.83;18.20;;;3.20;99.90;;;;;;5069673;28;21020;-66
2021/10/29 04:25:43;;;;;;;29.00;19.73;;;3.20;99.90;;;;;;5069898;28;20612;-66
2021/10/29 04:28:12;;;;;;;27.97;19.53;;;3.10;99.90;;;;;;5069655;28;20979;-65
2021/10/29 04:30:42;;;;;;;25.03;19.27;;;3.00;99.90;;;;;;5069819;28;20530;-65
2021/10/29 04:33:09;;;;;;;31.50;20.07;;;3.10;99.90;;;;;;5069841;28;20454;-65
2021/10/29 04:35:36;;;;;;;29.37;21.30;;;3.10;99.90;;;;;;5069528;28;20554;-65
2021/10/29 04:38:05;;;;;;;29.43;21.03;;;3.20;99.90;;;;;;5069403;28;20796;-65
2021/10/29 04:40:31;;;;;;;31.53;20.07;;;3.10;99.90;;;;;;5069449;28;20471;-65
2021/10/29 04:42:58;;;;;;;26.97;18.97;;;3.10;99.90;;;;;;5069585;28;20455;-72
2021/10/29 04:45:27;;;;;;;28.77;19.53;;;3.10;99.90;;;;;;5069536;28;20467;-70
2021/10/29 04:47:53;;;;;;;32.10;20.20;;;3.10;99.90;;;;;;5068984;28;20447;-65
2021/10/29 04:50:20;;;;;;;27.70;19.33;;;3.10;99.90;;;;;;5069412;28;20458;-65
2021/10/29 04:52:47;;;;;;;33.80;21.40;;;3.00;99.90;;;;;;5069568;28;20843;-65
2021/10/29 04:55:14;;;;;;;31.40;19.97;;;3.00;99.90;;;;;;5069511;28;20459;-66
2021/10/29 04:57:41;;;;;;;28.33;20.40;;;3.00;99.90;;;;;;5068898;28;20455;-66
2021/10/29 05:00:10;;;;;;;28.90;20.17;;;3.00;99.90;;;;;;5069357;28;20506;-66
2021/10/29 05:02:38;;;;;;;31.47;20.30;;;3.00;99.90;;;;;;5068832;28;20449;-66
2021/10/29 05:05:08;;;;;;;31.17;19.83;;;2.90;99.90;;;;;;5060745;28;20506;-66
2021/10/29 05:07:36;;;;;;;28.10;19.43;;;2.90;99.90;;;;;;5065263;28;20490;-66
2021/10/29 05:10:04;;;;;;;32.87;20.00;;;2.90;99.90;;;;;;5062119;28;20452;-66
2021/10/29 05:12:31;;;;;;;45.90;22.37;;;2.90;99.90;;;;;;5050729;28;20452;-66
2021/10/29 05:14:58;;;;;;;53.03;23.30;;;2.90;99.90;;;;;;5063457;28;20482;-67
2021/10/29 05:17:25;;;;;;;30.37;20.13;;;2.80;99.90;;;;;;5069560;28;20446;-64
2021/10/29 05:19:53;;;;;;;86.07;27.90;;;2.90;99.90;;;;;;5070146;28;20869;-65
2021/10/29 05:22:20;;;;;;;81.37;25.10;;;2.90;99.90;;;;;;5072217;28;20443;-66
2021/10/29 05:24:46;;;;;;;43.23;23.57;;;2.90;99.90;;;;;;5071336;28;20470;-66
2021/10/29 05:27:13;;;;;;;30.27;20.60;;;2.90;99.90;;;;;;5070688;28;20451;-66
2021/10/29 05:29:40;;;;;;;33.33;21.30;;;2.90;99.90;;;;;;5071490;28;20534;-67
2021/10/29 05:32:08;;;;;;;34.77;22.87;;;2.90;99.90;;;;;;5072078;28;20455;-66
2021/10/29 05:34:35;;;;;;;31.80;21.27;;;2.90;99.90;;;;;;5071936;28;20439;-66
2021/10/29 05:37:03;;;;;;;32.83;21.40;;;2.90;99.90;;;;;;5071945;28;20443;-65
2021/10/29 05:39:31;;;;;;;35.77;20.27;;;2.90;99.90;;;;;;5071957;28;20443;-66
2021/10/29 05:41:58;;;;;;;31.10;21.13;;;2.90;99.90;;;;;;5071930;28;20482;-66
2021/10/29 05:44:25;;;;;;;31.80;21.37;;;2.90;99.90;;;;;;5071645;28;20527;-73
2021/10/29 05:46:53;;;;;;;36.10;22.93;;;2.90;99.90;;;;;;5071722;28;20439;-65
2021/10/29 05:49:20;;;;;;;34.30;22.53;;;2.90;99.90;;;;;;5072044;28;20455;-66
2021/10/29 05:51:48;;;;;;;36.37;22.70;;;2.90;99.90;;;;;;5071236;28;20439;-66
2021/10/29 05:56:59;;;;;;;37.00;22.63;;;3.10;99.90;;;;;;5070843;28;20439;-66
2021/10/29 05:59:26;;;;;;;30.43;21.53;;;3.10;99.90;;;;;;5071837;28;20537;-65
2021/10/29 06:01:53;;;;;;;31.50;21.60;;;3.10;99.90;;;;;;5071504;28;20485;-66
2021/10/29 06:04:19;;;;;;;31.07;20.70;;;3.30;99.90;;;;;;5071540;28;20431;-66
2021/10/29 06:06:46;;;;;;;38.73;22.40;;;3.20;99.90;;;;;;5071086;28;20470;-66
2021/10/29 06:09:13;;;;;;;34.93;22.10;;;3.30;99.90;;;;;;5069602;28;20970;-67
2021/10/29 06:11:41;;;;;;;27.87;21.03;;;3.30;99.90;;;;;;5068397;28;20446;-67
2021/10/29 06:14:08;;;;;;;59.87;27.30;;;3.30;99.90;;;;;;5051513;28;20536;-65
2021/10/29 06:16:35;;;;;;;47.33;25.20;;;3.40;99.90;;;;;;5065519;28;20830;-64
2021/10/29 06:19:02;;;;;;;37.97;23.10;;;3.50;99.90;;;;;;5071278;28;20449;-64
2021/10/29 06:21:34;;;;;;;40.30;24.53;;;3.60;99.90;;;;;;5067396;28;20558;-65
2021/10/29 06:24:04;;;;;;;47.03;26.70;;;3.60;99.90;;;;;;5060504;28;20455;-62
2021/10/29 06:26:41;;;;;;;48.27;24.57;;;3.70;99.90;;;;;;5067906;28;20459;-63
2021/10/29 06:29:09;;;;;;;46.30;26.47;;;3.80;99.90;;;;;;5069725;28;20442;-63
2021/10/29 06:31:36;;;;;;;40.23;24.27;;;3.90;99.90;;;;;;5067085;28;20443;-63
2021/10/29 06:34:03;;;;;;;41.00;24.73;;;3.90;99.90;;;;;;5067866;28;20534;-63
2021/10/29 06:36:30;;;;;;;46.80;26.07;;;3.90;99.90;;;;;;5068831;28;20467;-63
2021/10/29 06:38:58;;;;;;;38.47;23.33;;;3.90;99.90;;;;;;5069432;28;20561;-63
2021/10/29 06:41:25;;;;;;;60.13;25.40;;;4.00;99.90;;;;;;5069163;28;20510;-65
2021/10/29 06:44:04;;;;;;;35.80;22.50;;;4.00;99.90;;;;;;5069510;28;20497;-63
2021/10/29 06:46:38;;;;;;;49.40;23.70;;;4.00;99.90;;;;;;5068977;28;20475;-63
2021/10/29 06:49:10;;;;;;;58.17;22.60;;;4.10;99.90;;;;;;5068886;28;20492;-66
2021/10/29 06:59:59;;;;;;;35.17;20.17;;;4.40;99.90;;;;;;5070205;28;20431;-64
2021/10/29 07:02:51;;;;;;;28.63;18.53;;;4.60;99.90;;;;;;5069592;28;20435;-63
2021/10/29 07:41:14;;;;;;;22.00;18.43;;;6.70;99.90;;;;;;5069354;28;21092;-64
2021/10/29 07:43:46;;;;;;;23.27;19.53;;;7.00;99.90;;;;;;5069612;28;20807;-64
2021/10/29 07:46:14;;;;;;;24.57;19.40;;;7.10;99.90;;;;;;5069534;28;21198;-63
2021/10/29 07:48:41;;;;;;;19.70;17.20;;;7.30;99.90;;;;;;5069690;28;20439;-63
2021/10/29 07:51:09;;;;;;;17.90;15.87;;;7.40;99.90;;;;;;5069513;28;20439;-63
2021/10/29 07:53:36;;;;;;;16.20;14.47;;;7.60;99.90;;;;;;5069120;28;20446;-64
2021/10/29 07:56:05;;;;;;;17.70;14.80;;;7.50;99.90;;;;;;5069825;28;20553;-64
2021/10/29 07:58:33;;;;;;;17.17;15.37;;;7.60;99.90;;;;;;5069693;28;20450;-63
2021/10/29 08:01:00;;;;;;;20.13;17.77;;;7.80;99.90;;;;;;5069825;28;20485;-63
2021/10/29 08:03:28;;;;;;;17.63;15.57;;;7.90;99.90;;;;;;5069848;28;20832;-64
2021/10/29 08:05:55;;;;;;;17.37;15.63;;;8.10;99.90;;;;;;5069533;28;20466;-64
2021/10/29 08:08:23;;;;;;;17.33;15.40;;;8.30;99.90;;;;;;5069503;28;20446;-63
2021/10/29 08:10:51;;;;;;;17.03;15.07;;;8.50;99.90;;;;;;5069731;28;20439;-64
2021/10/29 08:13:18;;;;;;;17.03;15.13;;;8.50;99.90;;;;;;5068659;28;20482;-63
2021/10/29 08:15:45;;;;;;;17.73;15.87;;;8.80;99.90;;;;;;5066671;28;20459;-63
2021/10/29 08:18:12;;;;;;;14.70;12.73;;;9.10;99.90;;;;;;5068476;28;20449;-63
2021/10/29 08:20:40;;;;;;;15.13;13.63;;;9.10;99.90;;;;;;5069090;28;20843;-63
2021/10/29 08:23:09;;;;;;;16.60;14.17;;;9.20;99.90;;;;;;5069444;28;20450;-64
2021/10/29 08:25:38;;;;;;;16.53;13.93;;;9.40;99.90;;;;;;5069347;28;20462;-64
2021/10/29 08:28:05;;;;;;;17.37;15.40;;;9.60;99.90;;;;;;5069236;28;20443;-63
2021/10/29 08:30:32;;;;;;;15.53;14.00;;;9.70;99.90;;;;;;5069522;28;20445;-64
2021/10/29 08:32:59;;;;;;;16.50;14.90;;;9.90;99.90;;;;;;5069347;28;20449;-64
2021/10/29 08:35:26;;;;;;;17.03;15.20;;;9.80;99.90;;;;;;5069070;28;20465;-64
2021/10/29 08:37:53;;;;;;;16.50;14.80;;;10.00;99.90;;;;;;5068932;28;20462;-63
2021/10/29 08:40:21;;;;;;;15.03;13.33;;;10.30;99.90;;;;;;5072354;28;20443;-63
2021/10/29 08:42:50;;;;;;;15.50;13.90;;;10.50;99.90;;;;;;5073120;28;20483;-64
2021/10/29 08:45:18;;;;;;;16.90;14.50;;;10.70;99.90;;;;;;5073034;28;20883;-64
2021/10/29 08:47:46;;;;;;;15.97;14.37;;;10.70;99.90;;;;;;5072564;28;20486;-63
2021/10/29 08:50:16;;;;;;;15.97;14.27;;;10.60;99.90;;;;;;5072857;28;20453;-64
2021/10/29 08:52:44;;;;;;;18.17;16.37;;;10.60;99.90;;;;;;5072862;28;20458;-64
2021/10/29 08:55:14;;;;;;;16.43;14.80;;;10.60;99.90;;;;;;5072998;28;20467;-63
2021/10/29 08:57:43;;;;;;;18.30;16.10;;;10.70;99.90;;;;;;5072657;28;21140;-64
2021/10/29 09:00:18;;;;;;;17.87;16.07;;;10.70;99.90;;;;;;5073120;28;20451;-63
2021/10/29 09:02:50;;;;;;;17.93;16.17;;;10.80;99.90;;;;;;5072805;28;20573;-64
2021/10/29 09:05:24;;;;;;;17.87;15.20;;;10.80;99.90;;;;;;5072796;28;20515;-63
2021/10/29 09:08:05;;;;;;;17.23;15.40;;;10.50;99.90;;;;;;5072634;28;20496;-64
2021/10/29 09:32:59;;;;;;;16.90;14.90;;;12.00;99.90;;;;;;5072303;28;20472;-64
2021/10/29 09:35:28;;;;;;;17.27;15.40;;;12.00;99.90;;;;;;5072279;28;20471;-64
2021/10/29 09:38:00;;;;;;;17.67;15.87;;;12.10;99.90;;;;;;5071823;28;20454;-64
2021/10/29 09:40:28;;;;;;;18.17;16.27;;;12.50;99.90;;;;;;5072332;28;20832;-64
2021/10/29 09:43:00;;;;;;;17.03;15.23;;;12.90;99.90;;;;;;5071875;28;21039;-64
2021/10/29 09:45:30;;;;;;;17.83;14.57;;;13.40;99.90;;;;;;5072182;28;20854;-64
2021/10/29 09:48:13;;;;;;;16.27;14.73;;;13.90;99.90;;;;;;5071734;28;20449;-64
2021/10/29 09:50:47;;;;;;;19.37;14.80;;;14.20;99.90;;;;;;5071849;28;20850;-64
2021/10/29 09:56:04;;;;;;;16.10;14.50;;;14.10;99.90;;;;;;5068647;28;21266;-62
2021/10/29 09:58:31;;;;;;;17.90;14.33;;;14.30;99.90;;;;;;5071393;28;20512;-63
2021/10/29 10:01:00;;;;;;;17.33;15.73;;;14.60;99.90;;;;;;5071788;28;20445;-62
2021/10/29 10:03:30;;;;;;;16.53;14.80;;;14.40;99.90;;;;;;5071550;28;20542;-63
2021/10/29 10:05:57;;;;;;;16.57;14.90;;;14.60;99.90;;;;;;5071552;28;20477;-63
2021/10/29 10:08:27;;;;;;;15.87;14.27;;;14.80;99.90;;;;;;5071593;28;20505;-63
2021/10/29 10:10:55;;;;;;;17.07;15.43;;;14.80;99.90;;;;;;5071919;28;20450;-62
2021/10/29 10:13:22;;;;;;;16.13;14.47;;;15.20;99.90;;;;;;5071366;28;20744;-62
2021/10/29 10:15:52;;;;;;;15.70;13.80;;;15.60;99.90;;;;;;5071292;28;20459;-63
2021/10/29 10:18:20;;;;;;;17.33;15.60;;;15.90;99.90;;;;;;5071429;28;20619;-62
2021/10/29 10:20:49;;;;;;;15.17;13.67;;;15.80;99.90;;;;;;5071721;28;20450;-63
2021/10/29 10:23:19;;;;;;;17.13;14.23;;;16.00;99.90;;;;;;5071613;28;20479;-62
2021/10/29 10:26:06;;;;;;;15.87;14.20;;;16.30;99.90;;;;;;5071278;28;20495;-62
2021/10/29 10:43:13;;;;;;;16.03;14.53;;;17.60;99.90;;;;;;5070844;28;20584;-62
2021/10/29 10:45:48;;;;;;;15.43;13.83;;;17.80;99.90;;;;;;5070584;28;20992;-62
2021/10/29 10:48:23;;;;;;;15.73;14.23;;;18.10;99.90;;;;;;5070374;28;21006;-62
2021/10/29 10:50:53;;;;;;;16.77;15.00;;;18.50;99.90;;;;;;5070483;28;20858;-62
2021/10/29 10:53:27;;;;;;;16.63;14.83;;;18.80;99.90;;;;;;5070411;28;20450;-63
2021/10/29 10:56:03;;;;;;;16.03;14.27;;;19.10;99.90;;;;;;5070534;28;20482;-63
2021/10/29 10:58:41;;;;;;;14.57;13.17;;;19.50;99.90;;;;;;5070320;28;20443;-62
2021/10/29 11:01:16;;;;;;;14.60;13.10;;;19.60;99.90;;;;;;5069934;28;20446;-63
2021/10/29 11:04:14;;;;;;;14.53;13.13;;;20.10;99.90;;;;;;5070130;28;20503;-63
2021/10/29 11:07:15;;;;;;;15.83;12.67;;;20.60;99.90;;;;;;5070069;28;20470;-63
2021/10/29 11:10:04;;;;;;;14.47;13.00;;;20.80;99.90;;;;;;5070321;28;20525;-63
2021/10/29 11:13:05;;;;;;;14.10;12.80;;;20.60;99.10;;;;;;5070386;28;20817;-63
2021/10/29 11:15:32;;;;;;;18.23;13.17;;;20.20;99.70;;;;;;5070128;28;20466;-63
2021/10/29 11:18:01;;;;;;;13.20;11.90;;;20.10;99.90;;;;;;5069865;28;20937;-63
2021/10/29 11:20:43;;;;;;;15.07;13.57;;;20.00;99.90;;;;;;5070250;28;20458;-63
2021/10/29 11:23:13;;;;;;;16.37;13.90;;;20.30;99.50;;;;;;5070051;28;20489;-63
2021/10/29 11:26:00;;;;;;;16.13;13.37;;;20.60;99.50;;;;;;5069891;28;20471;-63
2021/10/29 11:28:32;;;;;;;13.43;12.13;;;20.90;99.00;;;;;;5069803;28;20450;-63
2021/10/29 11:31:01;;;;;;;13.43;12.20;;;21.00;98.60;;;;;;5069936;28;20447;-64
2021/10/29 11:33:28;;;;;;;15.23;13.83;;;21.50;98.10;;;;;;5069953;28;20533;-63
2021/10/29 11:36:01;;;;;;;13.63;12.40;;;21.50;96.80;;;;;;5069650;28;20542;-63
2021/10/29 11:38:30;;;;;;;13.47;12.07;;;21.40;96.60;;;;;;5069374;28;20443;-63
2021/10/29 11:40:59;;;;;;;17.53;13.63;;;21.10;98.30;;;;;;5069502;28;20542;-63
2021/10/29 11:43:30;;;;;;;15.63;13.77;;;20.60;98.50;;;;;;5069847;28;20565;-63
2021/10/29 11:45:59;;;;;;;14.93;13.30;;;19.80;98.60;;;;;;5069626;28;20463;-64
2021/10/29 11:48:26;;;;;;;15.00;13.53;;;19.20;99.90;;;;;;5069502;28;20885;-63
2021/10/29 11:51:08;;;;;;;13.67;12.43;;;18.80;99.90;;;;;;5069744;28;20451;-64
2021/10/29 11:53:37;;;;;;;15.30;11.63;;;18.50;99.90;;;;;;5069349;28;21146;-63
2021/10/29 11:56:13;;;;;;;12.83;11.53;;;18.20;99.90;;;;;;5069154;28;20491;-65
2021/10/29 11:58:47;;;;;;;13.33;10.90;;;18.00;99.90;;;;;;5061180;28;20891;-63
2021/10/29 12:01:27;;;;;;;12.53;11.27;;;17.80;99.90;;;;;;5061228;28;20439;-63
2021/10/29 12:09:24;;;;;;;10.23;9.20;;;17.40;99.90;;;;;;5047897;28;20424;-64
2021/10/29 12:11:56;;;;;;;14.23;10.80;;;17.30;99.90;;;;;;5048240;28;20444;-65
2021/10/29 12:14:29;;;;;;;12.23;9.80;;;17.30;99.90;;;;;;5055814;28;20447;-64
2021/10/29 12:17:00;;;;;;;12.07;9.37;;;17.40;99.90;;;;;;5073524;28;20435;-63
2021/10/29 12:19:27;;;;;;;12.60;9.60;;;17.40;99.90;;;;;;5073620;28;20998;-64
2021/10/29 12:22:01;;;;;;;10.30;9.07;;;17.30;99.90;;;;;;5073231;28;21016;-64
2021/10/29 12:24:28;;;;;;;10.23;9.07;;;17.10;99.90;;;;;;5073296;28;20447;-64
2021/10/29 12:26:59;;;;;;;9.80;8.27;;;17.00;99.90;;;;;;5072624;28;20454;-64
2021/10/29 12:29:27;;;;;;;9.83;8.83;;;17.00;99.90;;;;;;5073219;28;20451;-64
2021/10/29 12:32:26;;;;;;;11.40;8.60;;;16.90;99.90;;;;;;5073144;28;20466;-64
2021/10/29 12:54:37;;;;;;;8.60;7.77;;;16.70;99.90;;;;;;5072981;28;20422;-64
2021/10/29 13:02:40;;;;;;;8.50;7.70;;;16.70;99.90;;;;;;4997779;28;20475;-64
2021/10/29 13:05:12;;;;;;;8.23;7.00;;;16.80;99.90;;;;;;5073009;28;20470;-64
2021/10/29 13:07:39;;;;;;;8.90;6.17;;;16.80;99.90;;;;;;5072443;28;20952;-64
2021/10/29 13:10:08;;;;;;;9.33;7.53;;;16.90;99.90;;;;;;5072728;28;20461;-64
2021/10/29 13:12:44;;;;;;;7.43;6.63;;;16.80;99.90;;;;;;5072589;28;20431;-64
2021/10/29 13:15:15;;;;;;;5.83;5.23;;;16.90;99.90;;;;;;5072557;28;20858;-64
2021/10/29 13:17:50;;;;;;;7.00;6.30;;;16.90;99.90;;;;;;5072241;28;20443;-62
2021/10/29 13:28:28;;;;;;;8.47;6.60;;;16.80;99.90;;;;;;5027481;28;20476;-64
2021/10/29 13:36:50;;;;;;;7.90;5.30;;;16.60;99.90;;;;;;5068186;28;20466;-64
2021/10/29 13:50:51;;;;;;;9.03;6.80;;;16.20;99.90;;;;;;5058768;28;20508;-64
2021/10/29 13:53:37;;;;;;;8.60;7.80;;;16.10;99.90;;;;;;5057623;28;20538;-64
2021/10/29 13:56:17;;;;;;;6.60;5.90;;;16.10;99.90;;;;;;5069159;28;20485;-64
2021/10/29 13:58:58;;;;;;;8.40;6.10;;;16.10;99.90;;;;;;5071311;28;21025;-64
2021/10/29 14:01:45;;;;;;;6.93;5.70;;;16.10;99.90;;;;;;5067729;28;20852;-64
2021/10/29 14:29:05;;;;;;;6.53;5.43;;;15.10;99.90;;;;;;5056910;28;20489;-63
2021/10/29 14:31:36;;;;;;;7.70;5.43;;;15.10;99.90;;;;;;5055637;28;20458;-64
2021/10/29 14:34:09;;;;;;;5.90;5.20;;;15.00;99.90;;;;;;5054178;28;20451;-64
2021/10/29 14:36:45;;;;;;;8.80;5.83;;;15.00;99.90;;;;;;5064922;28;20840;-61
2021/10/29 14:39:15;;;;;;;6.10;5.30;;;15.00;99.90;;;;;;5069752;28;20508;-64
2021/10/29 14:41:45;;;;;;;6.60;5.00;;;14.90;99.90;;;;;;5069839;28;20542;-64
2021/10/29 14:44:17;;;;;;;5.00;4.37;;;14.80;99.90;;;;;;5069979;28;20482;-64
2021/10/29 14:46:54;;;;;;;6.80;4.93;;;14.80;99.90;;;;;;5069867;28;20472;-63
2021/10/29 14:52:44;;;;;;;6.30;4.93;;;14.60;99.90;;;;;;5069791;28;20451;-63
2021/10/29 15:01:04;;;;;;;5.23;4.60;;;14.40;99.90;;;;;;5070247;28;20844;-63
2021/10/29 15:03:57;;;;;;;6.73;6.03;;;14.40;99.90;;;;;;5070774;28;20481;-63
2021/10/29 15:06:35;;;;;;;6.37;4.73;;;14.40;99.90;;;;;;5069534;28;20475;-64
2021/10/29 15:17:33;;;;;;;6.40;5.13;;;15.80;99.90;;;;;;5068580;28;20484;-64
2021/10/29 15:25:55;;;;;;;8.13;5.60;;;15.20;99.90;;;;;;5068722;28;20960;-63
2021/10/29 15:28:32;;;;;;;6.57;5.60;;;14.90;99.90;;;;;;5068746;28;20964;-62
2021/10/29 15:31:02;;;;;;;7.90;6.07;;;14.60;99.90;;;;;;5068772;28;20955;-62
2021/10/29 15:33:39;;;;;;;7.80;6.17;;;14.40;99.90;;;;;;5069258;28;20464;-63
2021/10/29 15:41:41;;;;;;;11.60;7.27;;;13.90;99.90;;;;;;5068656;28;20866;-63
2021/10/29 15:44:12;;;;;;;11.00;7.47;;;13.70;99.90;;;;;;5068197;28;20474;-63
2021/10/29 15:46:43;;;;;;;11.43;8.07;;;13.60;99.90;;;;;;5067683;28;20477;-64
2021/10/29 15:49:23;;;;;;;8.83;7.93;;;13.50;99.90;;;;;;5068893;28;20458;-63
2021/10/29 15:51:53;;;;;;;10.03;7.33;;;13.30;99.90;;;;;;5064035;28;20458;-63
2021/10/29 15:54:21;;;;;;;8.17;7.00;;;13.20;99.90;;;;;;5060165;28;20444;-63
2021/10/29 15:56:52;;;;;;;9.03;6.43;;;12.90;99.90;;;;;;5061719;28;21247;-63
2021/10/29 15:59:30;;;;;;;8.93;7.53;;;12.80;99.90;;;;;;5063169;28;20444;-64
2021/10/29 16:02:06;;;;;;;9.40;7.47;;;12.60;99.90;;;;;;5063170;28;20443;-65
2021/10/29 16:18:16;;;;;;;8.20;6.57;;;11.40;99.90;;;;;;5067175;28;20561;-63
2021/10/29 16:20:43;;;;;;;9.00;6.80;;;11.20;99.90;;;;;;5061732;28;20447;-63
2021/10/29 16:23:11;;;;;;;9.83;7.30;;;11.00;99.90;;;;;;5063771;28;20529;-63